createdAt,value
2023-01-28T00:01:35.275Z,4.92
2023-01-28T00:04:02.016Z,4.94
2023-01-28T00:06:28.667Z,4.96
2023-01-28T00:08:55.983Z,4.97
2023-01-28T00:11:23.081Z,4.99
2023-01-28T00:13:54.132Z,5.01
2023-01-28T00:16:27.354Z,5.02
2023-01-28T00:18:54.921Z,5.03
2023-01-28T00:21:22.021Z,5.05
2023-01-28T00:23:55.571Z,5.08
2023-01-28T00:26:25.278Z,5.08
2023-01-28T00:28:52.079Z,5.09
2023-01-28T00:31:24.809Z,5.11
2023-01-28T00:33:52.468Z,5.13
2023-01-28T00:36:21.124Z,5.14
2023-01-28T00:38:53.195Z,5.15
2023-01-28T00:41:22.281Z,5.17
2023-01-28T00:43:51.668Z,5.17
2023-01-28T00:46:19.415Z,5.18
2023-01-28T00:48:46.189Z,5.19
2023-01-28T00:51:15.233Z,5.18
2023-01-28T00:53:43.194Z,5.18
2023-01-28T00:56:14.512Z,5.17
2023-01-28T00:58:42.803Z,5.16
2023-01-28T01:01:25.995Z,5.15
2023-01-28T01:04:03.387Z,5.13
2023-01-28T01:06:33.891Z,5.12
2023-01-28T01:09:01.626Z,5.10
2023-01-28T01:11:28.354Z,5.10
2023-01-28T01:13:57.012Z,5.10
2023-01-28T01:16:27.739Z,5.10
2023-01-28T01:18:55.969Z,5.07
2023-01-28T01:21:25.495Z,5.01
2023-01-28T01:23:53.118Z,4.93
2023-01-28T01:26:22.001Z,4.88
2023-01-28T01:28:51.377Z,4.83
2023-01-28T01:31:20.257Z,4.78
2023-01-28T01:33:48.348Z,4.76
2023-01-28T01:36:17.230Z,4.74
2023-01-28T01:38:44.738Z,4.74
2023-01-28T01:41:24.054Z,4.74
2023-01-28T01:44:03.007Z,4.74
2023-01-28T01:46:35.281Z,4.72
2023-01-28T01:49:28.385Z,4.71
2023-01-28T01:52:02.427Z,4.69
2023-01-28T01:54:32.448Z,4.68
2023-01-28T01:57:01.324Z,4.69
2023-01-28T01:59:32.065Z,4.68
2023-01-28T02:02:03.459Z,4.68
2023-01-28T02:04:34.749Z,4.68
2023-01-28T02:07:02.050Z,4.70
2023-01-28T02:09:31.429Z,4.71
2023-01-28T02:12:21.421Z,4.72
2023-01-28T02:14:53.051Z,4.74
2023-01-28T02:17:20.202Z,4.76
2023-01-28T02:19:54.486Z,4.77
2023-01-28T02:22:49.400Z,4.77
2023-01-28T02:25:54.685Z,4.78
2023-01-28T02:28:51.757Z,4.78
2023-01-28T02:31:33.887Z,4.77
2023-01-28T02:34:18.399Z,4.77
2023-01-28T02:36:56.927Z,4.77
2023-01-28T02:39:29.048Z,4.79
2023-01-28T02:42:09.743Z,4.82
2023-01-28T02:44:36.701Z,4.83
2023-01-28T02:47:21.833Z,4.85
2023-01-28T02:49:53.347Z,4.84
2023-01-28T02:52:56.964Z,4.84
2023-01-28T02:56:00.628Z,4.83
2023-01-28T02:58:36.553Z,4.81
2023-01-28T03:01:39.042Z,4.81
2023-01-28T03:04:23.839Z,4.81
2023-01-28T03:06:56.720Z,4.80
2023-01-28T03:09:27.051Z,4.77
2023-01-28T03:12:21.496Z,4.75
2023-01-28T03:15:11.256Z,4.73
2023-01-28T03:18:08.291Z,4.70
2023-01-28T03:21:10.917Z,4.66
2023-01-28T03:24:15.105Z,4.63
2023-01-28T03:27:25.403Z,4.60
2023-01-28T03:30:21.796Z,4.57
2023-01-28T03:33:09.152Z,4.57
2023-01-28T03:35:55.917Z,4.59
2023-01-28T03:38:23.246Z,4.61
2023-01-28T03:40:52.174Z,4.63
2023-01-28T03:43:19.502Z,4.66
2023-01-28T03:45:51.458Z,4.69
2023-01-28T03:48:19.895Z,4.69
2023-01-28T03:50:48.129Z,4.70
2023-01-28T03:53:16.868Z,4.71
2023-01-28T03:55:52.900Z,4.71
2023-01-28T03:58:21.327Z,4.70
2023-01-28T04:00:48.171Z,4.69
2023-01-28T04:03:20.081Z,4.68
2023-01-28T04:05:59.102Z,4.66
2023-01-28T04:08:28.627Z,4.64
2023-01-28T04:11:26.178Z,4.63
2023-01-28T04:13:53.427Z,4.62
2023-01-28T04:16:21.189Z,4.60
2023-01-28T04:18:48.545Z,4.59
2023-01-28T04:21:16.157Z,4.56
2023-01-28T04:23:43.123Z,4.55
2023-01-28T04:26:11.857Z,4.53
2023-01-28T04:28:38.517Z,4.51
2023-01-28T04:31:06.048Z,4.51
2023-01-28T04:33:41.658Z,4.50
2023-01-28T04:36:18.879Z,4.48
2023-01-28T04:39:01.126Z,4.46
2023-01-28T04:41:38.585Z,4.41
2023-01-28T04:44:13.816Z,4.36
2023-01-28T04:47:03.389Z,4.32
2023-01-28T04:49:53.087Z,4.28
2023-01-28T04:52:33.615Z,4.26
2023-01-28T04:55:34.845Z,4.23
2023-01-28T04:58:01.485Z,4.20
2023-01-28T05:00:29.465Z,4.17
2023-01-28T05:02:56.090Z,4.14
2023-01-28T05:05:23.083Z,4.13
2023-01-28T05:08:04.067Z,4.11
2023-01-28T05:10:30.700Z,4.09
2023-01-28T05:12:57.832Z,4.08
2023-01-28T05:15:24.580Z,4.05
2023-01-28T05:17:56.327Z,4.02
2023-01-28T05:20:23.491Z,3.98
2023-01-28T05:22:50.596Z,3.95
2023-01-28T05:25:27.652Z,3.92
2023-01-28T05:27:54.697Z,3.87
2023-01-28T05:30:22.300Z,3.85
2023-01-28T05:32:49.684Z,3.82
2023-01-28T05:35:20.681Z,3.77
2023-01-28T05:37:47.496Z,3.71
2023-01-28T05:40:15.054Z,3.66
2023-01-28T05:42:41.984Z,3.61
2023-01-28T05:45:21.333Z,3.56
2023-01-28T05:48:10.803Z,3.51
2023-01-28T05:50:49.233Z,3.47
2023-01-28T05:53:36.079Z,3.44
2023-01-28T05:56:02.855Z,3.40
2023-01-28T05:58:32.200Z,3.36
2023-01-28T06:01:02.102Z,3.32
2023-01-28T06:03:36.895Z,3.27
2023-01-28T06:06:04.071Z,3.24
2023-01-28T06:08:31.522Z,3.22
2023-01-28T06:10:58.889Z,3.20
2023-01-28T06:13:25.825Z,3.18
2023-01-28T06:16:01.490Z,3.15
2023-01-28T06:18:43.157Z,3.13
2023-01-28T06:21:09.810Z,3.10
2023-01-28T06:23:37.190Z,3.08
2023-01-28T06:26:07.585Z,3.06
2023-01-28T06:28:35.854Z,3.04
2023-01-28T06:31:02.541Z,3.03
2023-01-28T06:33:29.578Z,3.01
2023-01-28T06:35:56.423Z,3.00
2023-01-28T06:38:23.079Z,2.99
2023-01-28T06:40:56.038Z,2.97
2023-01-28T06:43:28.233Z,2.95
2023-01-28T06:45:55.370Z,2.92
2023-01-28T06:48:22.221Z,2.91
2023-01-28T06:50:49.275Z,2.90
2023-01-28T06:53:16.908Z,2.88
2023-01-28T06:55:43.529Z,2.87
2023-01-28T06:58:10.240Z,2.86
2023-01-28T07:00:37.842Z,2.88
2023-01-28T07:03:05.374Z,2.88
2023-01-28T07:05:32.116Z,2.89
2023-01-28T07:07:58.901Z,2.91
2023-01-28T07:10:25.683Z,2.93
2023-01-28T07:12:52.366Z,2.95
2023-01-28T07:15:19.137Z,2.96
2023-01-28T07:17:45.901Z,2.97
2023-01-28T07:20:15.822Z,2.99
2023-01-28T07:22:43.701Z,3.00
2023-01-28T07:25:11.811Z,3.02
2023-01-28T07:27:38.678Z,3.04
2023-01-28T07:30:06.014Z,3.07
2023-01-28T07:32:32.645Z,3.11
2023-01-28T07:34:59.237Z,3.14
2023-01-28T07:37:25.860Z,3.18
2023-01-28T07:39:52.488Z,3.22
2023-01-28T07:42:19.237Z,3.27
2023-01-28T07:44:47.046Z,3.29
2023-01-28T07:47:13.682Z,3.31
2023-01-28T07:49:41.210Z,3.35
2023-01-28T07:52:10.911Z,3.41
2023-01-28T07:54:37.653Z,3.49
2023-01-28T07:57:09.997Z,3.56
2023-01-28T07:59:36.750Z,3.65
2023-01-28T08:02:03.836Z,3.73
2023-01-28T08:04:30.620Z,3.82
2023-01-28T08:06:57.502Z,3.89
2023-01-28T08:09:24.245Z,3.96
2023-01-28T08:11:50.948Z,4.03
2023-01-28T08:14:17.526Z,4.09
2023-01-28T08:16:44.203Z,4.17
2023-01-28T08:19:11.277Z,4.27
2023-01-28T08:21:37.859Z,4.37
2023-01-28T08:24:04.812Z,4.48
2023-01-28T08:26:31.411Z,4.59
2023-01-28T08:28:58.055Z,4.67
2023-01-28T08:31:25.079Z,4.73
2023-01-28T08:33:51.740Z,4.78
2023-01-28T08:36:18.429Z,4.83
2023-01-28T08:38:45.064Z,4.90
2023-01-28T08:41:11.656Z,4.98
2023-01-28T08:43:38.378Z,5.10
2023-01-28T08:46:07.667Z,5.23
2023-01-28T08:48:34.517Z,5.41
2023-01-28T08:51:01.114Z,5.57
2023-01-28T08:53:27.742Z,5.75
2023-01-28T08:55:54.655Z,5.87
2023-01-28T08:58:21.743Z,6.07
2023-01-28T09:00:49.084Z,6.29
2023-01-28T09:03:15.971Z,6.53
2023-01-28T09:05:42.764Z,6.78
2023-01-28T09:08:18.177Z,7.03
2023-01-28T09:10:45.038Z,7.27
2023-01-28T09:13:14.156Z,7.50
2023-01-28T09:15:41.070Z,7.65
2023-01-28T09:18:07.841Z,7.74
2023-01-28T09:20:34.804Z,7.84
2023-01-28T09:23:02.182Z,7.93
2023-01-28T09:25:29.049Z,8.06
2023-01-28T09:27:55.794Z,8.20
2023-01-28T09:30:22.551Z,8.26
2023-01-28T09:32:53.491Z,8.34
2023-01-28T09:35:20.959Z,8.46
2023-01-28T09:37:48.918Z,8.64
2023-01-28T09:40:18.826Z,8.83
2023-01-28T09:42:59.519Z,9.03
2023-01-28T09:46:04.731Z,9.27
2023-01-28T09:48:38.365Z,9.53
2023-01-28T09:51:10.971Z,9.66
2023-01-28T09:53:44.980Z,9.76
2023-01-28T09:56:15.510Z,9.87
2023-01-28T09:58:43.359Z,9.96
2023-01-28T10:01:30.869Z,10.01
2023-01-28T10:04:12.384Z,10.12
2023-01-28T10:07:17.919Z,10.22
2023-01-28T10:10:03.113Z,10.25
2023-01-28T10:12:57.556Z,10.26
2023-01-28T10:15:48.929Z,10.22
2023-01-28T10:18:18.057Z,10.20
2023-01-28T10:20:52.450Z,10.08
2023-01-28T10:23:26.947Z,10.01
2023-01-28T10:25:57.919Z,10.08
2023-01-28T10:28:28.631Z,10.18
2023-01-28T10:30:55.903Z,10.26
2023-01-28T10:33:25.827Z,10.36
2023-01-28T10:35:52.672Z,10.49
2023-01-28T10:38:22.558Z,10.59
2023-01-28T10:40:50.341Z,10.68
2023-01-28T10:43:21.466Z,10.68
2023-01-28T10:46:11.429Z,10.62
2023-01-28T10:49:07.589Z,10.78
2023-01-28T10:51:36.943Z,10.86
2023-01-28T10:54:18.010Z,10.97
2023-01-28T10:56:45.091Z,10.89
2023-01-28T10:59:22.823Z,10.81
2023-01-28T11:01:53.822Z,10.86
2023-01-28T11:04:29.800Z,10.99
2023-01-28T11:07:16.429Z,11.00
2023-01-28T11:09:47.858Z,10.95
2023-01-28T11:12:22.760Z,11.02
2023-01-28T11:14:52.112Z,11.08
2023-01-28T11:17:20.405Z,11.23
2023-01-28T11:19:47.324Z,11.32
2023-01-28T11:22:21.976Z,11.36
2023-01-28T11:24:48.770Z,11.49
2023-01-28T11:27:18.551Z,11.47
2023-01-28T11:29:45.523Z,11.36
2023-01-28T11:32:25.161Z,11.31
2023-01-28T11:34:54.969Z,11.39
2023-01-28T11:37:23.381Z,11.47
2023-01-28T11:40:03.272Z,11.53
2023-01-28T11:42:30.478Z,11.46
2023-01-28T11:44:57.115Z,11.31
2023-01-28T11:47:47.965Z,11.12
2023-01-28T11:50:33.644Z,10.92
2023-01-28T11:53:24.476Z,10.78
2023-01-28T11:56:16.986Z,10.71
2023-01-28T11:59:05.116Z,10.73
2023-01-28T12:02:00.400Z,10.68
2023-01-28T12:04:53.903Z,10.56
2023-01-28T12:07:23.256Z,10.49
2023-01-28T12:10:22.786Z,10.45
2023-01-28T12:12:55.364Z,10.38
2023-01-28T12:15:32.759Z,10.28
2023-01-28T12:18:34.919Z,10.18
2023-01-28T12:21:08.263Z,10.20
2023-01-28T12:23:59.823Z,10.19
2023-01-28T12:26:55.957Z,10.05
2023-01-28T12:29:28.603Z,9.89
2023-01-28T12:32:24.428Z,9.73
2023-01-28T12:35:32.787Z,9.56
2023-01-28T12:38:15.155Z,9.33
2023-01-28T12:41:16.269Z,9.17
2023-01-28T12:43:45.813Z,8.99
2023-01-28T12:46:52.425Z,8.89
2023-01-28T12:49:34.927Z,8.84
2023-01-28T12:52:19.178Z,8.82
2023-01-28T12:54:54.981Z,8.76
2023-01-28T12:57:30.228Z,8.71
2023-01-28T13:00:21.774Z,8.66
2023-01-28T13:03:31.663Z,8.61
2023-01-28T13:06:31.807Z,8.53
2023-01-28T13:09:02.308Z,8.48
2023-01-28T13:11:36.178Z,8.45
2023-01-28T13:14:04.823Z,8.40
2023-01-28T13:16:37.373Z,8.40
2023-01-28T13:19:07.738Z,8.41
2023-01-28T13:21:47.586Z,8.44
2023-01-28T13:24:15.693Z,8.49
2023-01-28T13:26:44.741Z,8.56
2023-01-28T13:29:14.283Z,8.62
2023-01-28T13:31:52.183Z,8.63
2023-01-28T13:34:43.825Z,8.63
2023-01-28T13:37:39.285Z,8.66
2023-01-28T13:40:14.913Z,8.69
2023-01-28T13:42:42.292Z,8.69
2023-01-28T13:45:15.173Z,8.62
2023-01-28T13:47:46.996Z,8.62
2023-01-28T13:50:19.160Z,8.61
2023-01-28T13:52:56.962Z,8.59
2023-01-28T13:55:43.653Z,8.61
2023-01-28T13:58:33.610Z,8.64
2023-01-28T14:01:20.404Z,8.65
2023-01-28T14:04:22.961Z,8.64
2023-01-28T14:07:04.827Z,8.61
2023-01-28T14:09:49.787Z,8.61
2023-01-28T14:12:38.480Z,8.59
2023-01-28T14:15:33.477Z,8.59
2023-01-28T14:18:00.955Z,8.60
2023-01-28T14:20:44.013Z,8.60
2023-01-28T14:23:22.111Z,8.59
2023-01-28T14:26:07.195Z,8.60
2023-01-28T14:29:00.188Z,8.60
2023-01-28T14:31:32.400Z,8.57
2023-01-28T14:34:09.196Z,8.52
2023-01-28T14:36:41.485Z,8.50
2023-01-28T14:39:20.860Z,8.51
2023-01-28T14:41:50.744Z,8.51
2023-01-28T14:44:29.553Z,8.52
2023-01-28T14:47:18.033Z,8.51
2023-01-28T14:49:57.866Z,8.52
2023-01-28T14:52:49.472Z,8.52
2023-01-28T14:55:31.315Z,8.52
2023-01-28T14:58:03.685Z,8.51
2023-01-28T15:00:33.895Z,8.51
2023-01-28T15:03:23.099Z,8.51
2023-01-28T15:06:05.853Z,8.49
2023-01-28T15:08:32.709Z,8.47
2023-01-28T15:11:01.521Z,8.44
2023-01-28T15:13:36.571Z,8.42
2023-01-28T15:16:03.668Z,8.41
2023-01-28T15:18:34.828Z,8.39
2023-01-28T15:21:02.537Z,8.37
2023-01-28T15:23:38.027Z,8.33
2023-01-28T15:26:17.896Z,8.29
2023-01-28T15:28:45.835Z,8.25
2023-01-28T15:31:39.291Z,8.22
2023-01-28T15:34:18.108Z,8.18
2023-01-28T15:36:47.666Z,8.15
2023-01-28T15:39:22.323Z,8.11
2023-01-28T15:41:59.201Z,8.06
2023-01-28T15:44:30.581Z,8.03
2023-01-28T15:47:02.424Z,8.01
2023-01-28T15:49:36.716Z,7.98
2023-01-28T15:52:04.022Z,7.95
2023-01-28T15:54:31.399Z,7.93
2023-01-28T15:57:09.345Z,7.90
2023-01-28T15:59:35.947Z,7.84
2023-01-28T16:02:25.970Z,7.80
2023-01-28T16:05:03.729Z,7.73
2023-01-28T16:07:32.805Z,7.66
2023-01-28T16:10:02.290Z,7.60
2023-01-28T16:12:29.667Z,7.53
2023-01-28T16:14:59.152Z,7.44
2023-01-28T16:17:30.823Z,7.34
2023-01-28T16:20:04.730Z,7.25
2023-01-28T16:22:40.756Z,7.16
2023-01-28T16:25:41.575Z,7.05
2023-01-28T16:28:19.742Z,6.92
2023-01-28T16:30:46.276Z,6.81
2023-01-28T16:33:20.674Z,6.71
2023-01-28T16:36:05.387Z,6.62
2023-01-28T16:38:34.941Z,6.52
2023-01-28T16:41:01.689Z,6.43
2023-01-28T16:43:28.357Z,6.38
2023-01-28T16:45:55.024Z,6.32
2023-01-28T16:48:22.437Z,6.26
2023-01-28T16:50:49.139Z,6.20
2023-01-28T16:53:21.317Z,6.14
2023-01-28T16:55:52.017Z,6.10
2023-01-28T16:58:25.516Z,6.06
2023-01-28T17:00:53.257Z,6.03
2023-01-28T17:03:20.056Z,6.00
2023-01-28T17:05:46.955Z,5.97
2023-01-28T17:08:13.579Z,5.95
2023-01-28T17:10:40.254Z,5.93
2023-01-28T17:13:08.359Z,5.92
2023-01-28T17:15:36.269Z,5.90
2023-01-28T17:18:02.971Z,5.88
2023-01-28T17:20:29.765Z,5.84
2023-01-28T17:22:56.458Z,5.82
2023-01-28T17:25:23.055Z,5.80
2023-01-28T17:27:50.229Z,5.77
2023-01-28T17:30:20.052Z,5.77
2023-01-28T17:32:46.720Z,5.76
2023-01-28T17:35:15.116Z,5.74
2023-01-28T17:37:42.113Z,5.73
2023-01-28T17:40:12.457Z,5.73
2023-01-28T17:42:39.374Z,5.72
2023-01-28T17:45:06.469Z,5.70
2023-01-28T17:47:33.104Z,5.69
2023-01-28T17:49:59.842Z,5.68
2023-01-28T17:52:26.676Z,5.68
2023-01-28T17:54:53.278Z,5.68
2023-01-28T17:57:20.163Z,5.69
2023-01-28T17:59:47.166Z,5.69
2023-01-28T18:02:14.870Z,5.68
2023-01-28T18:04:43.515Z,5.67
2023-01-28T18:07:11.282Z,5.66
2023-01-28T18:09:43.293Z,5.64
2023-01-28T18:12:12.386Z,5.63
2023-01-28T18:14:40.009Z,5.64
2023-01-28T18:17:07.632Z,5.64
2023-01-28T18:19:35.018Z,5.65
2023-01-28T18:22:01.729Z,5.65
2023-01-28T18:24:30.141Z,5.63
2023-01-28T18:27:00.027Z,5.60
2023-01-28T18:29:31.192Z,5.56
2023-01-28T18:31:59.762Z,5.54
2023-01-28T18:34:28.890Z,5.52
2023-01-28T18:36:57.362Z,5.50
2023-01-28T18:39:27.091Z,5.47
2023-01-28T18:41:54.889Z,5.45
2023-01-28T18:44:23.193Z,5.42
2023-01-28T18:46:51.283Z,5.39
2023-01-28T18:49:18.369Z,5.38
2023-01-28T18:51:45.165Z,5.36
2023-01-28T18:54:14.521Z,5.35
2023-01-28T18:56:42.197Z,5.33
2023-01-28T18:59:12.313Z,5.33
2023-01-28T19:01:42.659Z,5.32
2023-01-28T19:04:10.483Z,5.30
2023-01-28T19:06:37.424Z,5.30
2023-01-28T19:09:06.518Z,5.28
2023-01-28T19:11:34.727Z,5.28
2023-01-28T19:14:02.007Z,5.27
2023-01-28T19:16:28.870Z,5.28
2023-01-28T19:18:59.074Z,5.29
2023-01-28T19:21:28.051Z,5.29
2023-01-28T19:23:57.151Z,5.30
2023-01-28T19:26:25.088Z,5.31
2023-01-28T19:28:52.774Z,5.33
2023-01-28T19:31:21.069Z,5.36
2023-01-28T19:33:48.717Z,5.38
2023-01-28T19:36:15.843Z,5.40
2023-01-28T19:38:42.579Z,5.41
2023-01-28T19:41:09.872Z,5.41
2023-01-28T19:43:36.493Z,5.40
2023-01-28T19:46:05.985Z,5.37
2023-01-28T19:48:39.441Z,5.31
2023-01-28T19:51:08.308Z,5.15
2023-01-28T19:53:36.217Z,5.02
2023-01-28T19:56:04.031Z,4.93
2023-01-28T19:58:35.488Z,4.88
2023-01-28T20:01:23.776Z,4.86
2023-01-28T20:03:54.195Z,4.85
2023-01-28T20:06:22.869Z,4.83
2023-01-28T20:08:55.002Z,4.81
2023-01-28T20:11:22.648Z,4.82
2023-01-28T20:13:51.645Z,4.81
2023-01-28T20:16:26.915Z,4.81
2023-01-28T20:18:56.612Z,4.81
2023-01-28T20:21:24.280Z,4.81
2023-01-28T20:23:53.270Z,4.80
2023-01-28T20:26:23.993Z,4.80
2023-01-28T20:28:51.476Z,4.78
2023-01-28T20:31:19.664Z,4.78
2023-01-28T20:33:46.402Z,4.77
2023-01-28T20:36:14.251Z,4.76
2023-01-28T20:38:43.783Z,4.77
2023-01-28T20:41:20.237Z,4.77
2023-01-28T20:43:47.907Z,4.77
2023-01-28T20:46:27.663Z,4.75
2023-01-28T20:48:56.105Z,4.74
2023-01-28T20:51:26.000Z,4.73
2023-01-28T20:53:54.035Z,4.73
2023-01-28T20:56:25.862Z,4.74
2023-01-28T20:59:00.385Z,4.74
2023-01-28T21:01:29.794Z,4.72
2023-01-28T21:03:56.609Z,4.72
2023-01-28T21:06:24.203Z,4.71
2023-01-28T21:08:54.054Z,4.69
2023-01-28T21:11:22.197Z,4.67
2023-01-28T21:13:49.103Z,4.67
2023-01-28T21:16:16.106Z,4.64
2023-01-28T21:18:42.960Z,4.61
2023-01-28T21:21:19.059Z,4.58
2023-01-28T21:23:45.941Z,4.55
2023-01-28T21:26:13.882Z,4.52
2023-01-28T21:28:40.651Z,4.48
2023-01-28T21:31:20.172Z,4.46
2023-01-28T21:33:52.795Z,4.44
2023-01-28T21:36:20.378Z,4.42
2023-01-28T21:38:54.955Z,4.40
2023-01-28T21:41:21.966Z,4.37
2023-01-28T21:43:53.721Z,4.34
2023-01-28T21:46:26.580Z,4.31
2023-01-28T21:48:55.656Z,4.28
2023-01-28T21:51:46.348Z,4.24
2023-01-28T21:54:16.177Z,4.20
2023-01-28T21:56:45.108Z,4.16
2023-01-28T21:59:27.998Z,4.14
2023-01-28T22:02:02.534Z,4.10
2023-01-28T22:04:35.104Z,4.07
2023-01-28T22:07:03.323Z,4.05
2023-01-28T22:09:31.345Z,4.03
2023-01-28T22:11:58.155Z,4.02
2023-01-28T22:14:24.727Z,4.01
2023-01-28T22:16:51.617Z,3.99
2023-01-28T22:19:18.612Z,3.98
2023-01-28T22:21:46.925Z,3.97
2023-01-28T22:24:16.518Z,3.96
2023-01-28T22:26:44.065Z,3.94
2023-01-28T22:29:12.163Z,3.91
2023-01-28T22:31:39.440Z,3.88
2023-01-28T22:34:07.155Z,3.86
2023-01-28T22:36:34.607Z,3.85
2023-01-28T22:39:03.378Z,3.84
2023-01-28T22:41:30.283Z,3.82
2023-01-28T22:43:57.648Z,3.81
2023-01-28T22:46:25.394Z,3.79
2023-01-28T22:48:52.912Z,3.79
2023-01-28T22:51:26.196Z,3.79
2023-01-28T22:53:52.999Z,3.82
2023-01-28T22:56:21.840Z,3.85
2023-01-28T22:58:49.367Z,3.90
2023-01-28T23:01:17.557Z,3.96
2023-01-28T23:03:49.625Z,4.01
2023-01-28T23:06:18.820Z,4.05
2023-01-28T23:08:46.181Z,4.08
2023-01-28T23:11:25.123Z,4.09
2023-01-28T23:14:22.433Z,4.08
2023-01-28T23:17:08.807Z,4.07
2023-01-28T23:19:54.436Z,4.07
2023-01-28T23:23:09.040Z,4.07
2023-01-28T23:25:35.567Z,4.06
2023-01-28T23:28:02.180Z,4.04
2023-01-28T23:30:28.775Z,4.03
2023-01-28T23:32:57.721Z,4.01
2023-01-28T23:35:28.297Z,4.01
2023-01-28T23:37:55.755Z,4.01
2023-01-28T23:40:24.507Z,4.03
2023-01-28T23:42:51.645Z,4.06
2023-01-28T23:45:19.104Z,4.08
2023-01-28T23:47:45.909Z,4.07
2023-01-28T23:50:12.812Z,4.05
2023-01-28T23:52:39.523Z,4.02
2023-01-28T23:55:06.994Z,3.98
2023-01-28T23:57:35.689Z,3.94
